sensor_id;sensor_type;location;lat;lon;timestamp;P1;durP1;ratioP1;P2;durP2;ratioP2
1400;SDS011;46518;48.842;8.926;2022-07-01T00:01:44;1.85;;;1.02;;
1400;SDS011;46518;48.842;8.926;2022-07-01T00:04:13;0.60;;;0.60;;
1400;SDS011;46518;48.842;8.926;2022-07-01T00:06:42;1.50;;;0.90;;
1400;SDS011;46518;48.842;8.926;2022-07-01T00:09:10;1.50;;;1.25;;
1400;SDS011;46518;48.842;8.926;2022-07-01T00:11:38;0.70;;;0.70;;
1400;SDS011;46518;48.842;8.926;2022-07-01T00:14:08;0.80;;;0.80;;
1400;SDS011;46518;48.842;8.926;2022-07-01T00:16:36;0.85;;;0.80;;
1400;SDS011;46518;48.842;8.926;2022-07-01T00:19:05;1.30;;;1.10;;
1400;SDS011;46518;48.842;8.926;2022-07-01T00:21:34;1.42;;;0.80;;
1400;SDS011;46518;48.842;8.926;2022-07-01T00:24:03;1.02;;;0.80;;
1400;SDS011;46518;48.842;8.926;2022-07-01T00:26:31;2.65;;;1.40;;
1400;SDS011;46518;48.842;8.926;2022-07-01T00:28:59;2.20;;;1.10;;
1400;SDS011;46518;48.842;8.926;2022-07-01T00:31:29;1.25;;;0.80;;
1400;SDS011;46518;48.842;8.926;2022-07-01T00:33:57;1.30;;;0.90;;
1400;SDS011;46518;48.842;8.926;2022-07-01T00:36:25;0.75;;;0.70;;
1400;SDS011;46518;48.842;8.926;2022-07-01T00:38:56;0.60;;;0.60;;
1400;SDS011;46518;48.842;8.926;2022-07-01T00:41:25;1.10;;;0.90;;
1400;SDS011;46518;48.842;8.926;2022-07-01T00:43:53;1.02;;;0.80;;
1400;SDS011;46518;48.842;8.926;2022-07-01T00:46:22;1.23;;;0.60;;
1400;SDS011;46518;48.842;8.926;2022-07-01T00:48:54;1.38;;;1.15;;
1400;SDS011;46518;48.842;8.926;2022-07-01T00:51:24;1.98;;;1.50;;
1400;SDS011;46518;48.842;8.926;2022-07-01T00:53:52;1.30;;;1.20;;
1400;SDS011;46518;48.842;8.926;2022-07-01T00:56:20;0.93;;;0.93;;
1400;SDS011;46518;48.842;8.926;2022-07-01T00:58:48;1.10;;;1.00;;
1400;SDS011;46518;48.842;8.926;2022-07-01T01:01:17;1.00;;;0.90;;
1400;SDS011;46518;48.842;8.926;2022-07-01T01:03:46;1.20;;;1.10;;
1400;SDS011;46518;48.842;8.926;2022-07-01T01:06:15;1.50;;;1.10;;
1400;SDS011;46518;48.842;8.926;2022-07-01T01:08:44;1.75;;;0.85;;
1400;SDS011;46518;48.842;8.926;2022-07-01T01:11:15;0.70;;;0.70;;
1400;SDS011;46518;48.842;8.926;2022-07-01T01:13:44;0.90;;;0.73;;
1400;SDS011;46518;48.842;8.926;2022-07-01T01:16:15;1.10;;;0.90;;
1400;SDS011;46518;48.842;8.926;2022-07-01T01:18:45;1.02;;;0.70;;
1400;SDS011;46518;48.842;8.926;2022-07-01T01:21:15;1.00;;;0.82;;
1400;SDS011;46518;48.842;8.926;2022-07-01T01:23:43;1.38;;;0.77;;
1400;SDS011;46518;48.842;8.926;2022-07-01T01:26:16;1.27;;;1.00;;
1400;SDS011;46518;48.842;8.926;2022-07-01T01:28:45;1.80;;;0.75;;
1400;SDS011;46518;48.842;8.926;2022-07-01T01:31:13;1.67;;;1.30;;
1400;SDS011;46518;48.842;8.926;2022-07-01T01:33:41;5.53;;;1.40;;
1400;SDS011;46518;48.842;8.926;2022-07-01T01:36:09;1.20;;;1.10;;
1400;SDS011;46518;48.842;8.926;2022-07-01T01:38:39;2.90;;;1.15;;
1400;SDS011;46518;48.842;8.926;2022-07-01T01:41:08;2.47;;;1.25;;
1400;SDS011;46518;48.842;8.926;2022-07-01T01:43:36;3.78;;;1.40;;
1400;SDS011;46518;48.842;8.926;2022-07-01T01:46:04;1.73;;;1.63;;
1400;SDS011;46518;48.842;8.926;2022-07-01T01:48:32;2.15;;;1.35;;
1400;SDS011;46518;48.842;8.926;2022-07-01T01:51:00;1.40;;;1.10;;
1400;SDS011;46518;48.842;8.926;2022-07-01T01:53:28;1.00;;;1.00;;
1400;SDS011;46518;48.842;8.926;2022-07-01T01:55:57;1.73;;;1.10;;
1400;SDS011;46518;48.842;8.926;2022-07-01T01:58:26;1.38;;;1.27;;
1400;SDS011;46518;48.842;8.926;2022-07-01T02:00:54;1.83;;;1.73;;
1400;SDS011;46518;48.842;8.926;2022-07-01T02:03:22;3.85;;;1.98;;
1400;SDS011;46518;48.842;8.926;2022-07-01T02:05:50;2.40;;;2.30;;
1400;SDS011;46518;48.842;8.926;2022-07-01T02:08:19;1.98;;;1.75;;
1400;SDS011;46518;48.842;8.926;2022-07-01T02:10:47;3.17;;;2.42;;
1400;SDS011;46518;48.842;8.926;2022-07-01T02:13:21;2.70;;;2.00;;
1400;SDS011;46518;48.842;8.926;2022-07-01T02:15:49;1.85;;;1.60;;
1400;SDS011;46518;48.842;8.926;2022-07-01T02:18:17;3.95;;;2.25;;
1400;SDS011;46518;48.842;8.926;2022-07-01T02:20:45;2.60;;;2.40;;
1400;SDS011;46518;48.842;8.926;2022-07-01T02:23:13;3.38;;;2.20;;
1400;SDS011;46518;48.842;8.926;2022-07-01T02:25:42;2.35;;;2.15;;
1400;SDS011;46518;48.842;8.926;2022-07-01T02:28:10;2.83;;;2.63;;
1400;SDS011;46518;48.842;8.926;2022-07-01T02:30:40;4.30;;;3.28;;
1400;SDS011;46518;48.842;8.926;2022-07-01T02:33:09;4.40;;;3.97;;
1400;SDS011;46518;48.842;8.926;2022-07-01T02:35:39;2.25;;;2.15;;
1400;SDS011;46518;48.842;8.926;2022-07-01T02:38:14;2.65;;;2.30;;
1400;SDS011;46518;48.842;8.926;2022-07-01T02:40:43;3.03;;;2.72;;
1400;SDS011;46518;48.842;8.926;2022-07-01T02:43:11;4.15;;;2.88;;
1400;SDS011;46518;48.842;8.926;2022-07-01T02:45:40;3.30;;;3.00;;
1400;SDS011;46518;48.842;8.926;2022-07-01T02:48:09;3.30;;;3.00;;
1400;SDS011;46518;48.842;8.926;2022-07-01T02:50:37;2.10;;;2.00;;
1400;SDS011;46518;48.842;8.926;2022-07-01T02:53:05;2.38;;;2.28;;
1400;SDS011;46518;48.842;8.926;2022-07-01T02:55:33;4.05;;;3.42;;
1400;SDS011;46518;48.842;8.926;2022-07-01T02:58:01;1.90;;;1.80;;
1400;SDS011;46518;48.842;8.926;2022-07-01T03:00:30;2.08;;;1.98;;
1400;SDS011;46518;48.842;8.926;2022-07-01T03:03:00;5.53;;;2.78;;
1400;SDS011;46518;48.842;8.926;2022-07-01T03:05:28;2.65;;;2.38;;
1400;SDS011;46518;48.842;8.926;2022-07-01T03:07:56;3.25;;;2.70;;
1400;SDS011;46518;48.842;8.926;2022-07-01T03:10:25;5.60;;;3.30;;
1400;SDS011;46518;48.842;8.926;2022-07-01T03:12:53;3.33;;;2.60;;
1400;SDS011;46518;48.842;8.926;2022-07-01T03:15:21;4.45;;;2.10;;
1400;SDS011;46518;48.842;8.926;2022-07-01T03:17:49;2.65;;;2.45;;
1400;SDS011;46518;48.842;8.926;2022-07-01T03:20:18;2.00;;;1.70;;
1400;SDS011;46518;48.842;8.926;2022-07-01T03:22:46;2.95;;;2.10;;
1400;SDS011;46518;48.842;8.926;2022-07-01T03:25:14;2.88;;;2.55;;
1400;SDS011;46518;48.842;8.926;2022-07-01T03:27:42;2.78;;;2.58;;
1400;SDS011;46518;48.842;8.926;2022-07-01T03:30:14;2.60;;;2.40;;
1400;SDS011;46518;48.842;8.926;2022-07-01T03:32:44;2.15;;;2.05;;
1400;SDS011;46518;48.842;8.926;2022-07-01T03:35:12;2.67;;;2.47;;
1400;SDS011;46518;48.842;8.926;2022-07-01T03:37:59;2.95;;;2.65;;
1400;SDS011;46518;48.842;8.926;2022-07-01T03:40:27;2.78;;;2.22;;
1400;SDS011;46518;48.842;8.926;2022-07-01T03:42:55;2.08;;;1.88;;
1400;SDS011;46518;48.842;8.926;2022-07-01T03:45:23;2.72;;;2.40;;
1400;SDS011;46518;48.842;8.926;2022-07-01T03:47:52;2.00;;;1.77;;
1400;SDS011;46518;48.842;8.926;2022-07-01T03:50:20;2.60;;;2.35;;
1400;SDS011;46518;48.842;8.926;2022-07-01T03:52:49;1.70;;;1.60;;
1400;SDS011;46518;48.842;8.926;2022-07-01T03:55:39;1.52;;;1.42;;
1400;SDS011;46518;48.842;8.926;2022-07-01T03:58:07;1.95;;;1.85;;
1400;SDS011;46518;48.842;8.926;2022-07-01T04:00:36;2.33;;;2.22;;
1400;SDS011;46518;48.842;8.926;2022-07-01T04:03:06;1.90;;;1.80;;
1400;SDS011;46518;48.842;8.926;2022-07-01T04:05:36;2.70;;;2.05;;
1400;SDS011;46518;48.842;8.926;2022-07-01T04:08:06;3.35;;;1.80;;
1400;SDS011;46518;48.842;8.926;2022-07-01T04:10:38;1.90;;;1.80;;
1400;SDS011;46518;48.842;8.926;2022-07-01T04:13:08;3.28;;;2.53;;
1400;SDS011;46518;48.842;8.926;2022-07-01T04:15:57;2.17;;;2.05;;
1400;SDS011;46518;48.842;8.926;2022-07-01T04:18:26;2.65;;;2.45;;
1400;SDS011;46518;48.842;8.926;2022-07-01T04:20:54;2.20;;;2.00;;
1400;SDS011;46518;48.842;8.926;2022-07-01T04:23:40;2.33;;;2.13;;
1400;SDS011;46518;48.842;8.926;2022-07-01T04:26:09;3.22;;;2.17;;
1400;SDS011;46518;48.842;8.926;2022-07-01T04:28:57;2.38;;;1.67;;
1400;SDS011;46518;48.842;8.926;2022-07-01T04:31:25;2.45;;;2.25;;
1400;SDS011;46518;48.842;8.926;2022-07-01T04:33:53;1.52;;;1.42;;
1400;SDS011;46518;48.842;8.926;2022-07-01T04:36:22;2.35;;;1.85;;
1400;SDS011;46518;48.842;8.926;2022-07-01T04:38:50;1.70;;;1.60;;
1400;SDS011;46518;48.842;8.926;2022-07-01T04:41:19;4.68;;;2.28;;
1400;SDS011;46518;48.842;8.926;2022-07-01T04:44:05;3.50;;;2.67;;
1400;SDS011;46518;48.842;8.926;2022-07-01T04:46:33;3.08;;;2.53;;
1400;SDS011;46518;48.842;8.926;2022-07-01T04:49:01;1.85;;;1.70;;
1400;SDS011;46518;48.842;8.926;2022-07-01T04:51:30;2.65;;;2.45;;
1400;SDS011;46518;48.842;8.926;2022-07-01T04:54:01;2.58;;;2.38;;
1400;SDS011;46518;48.842;8.926;2022-07-01T04:56:31;3.95;;;2.65;;
1400;SDS011;46518;48.842;8.926;2022-07-01T04:59:00;4.05;;;2.72;;
1400;SDS011;46518;48.842;8.926;2022-07-01T05:01:28;2.63;;;2.42;;
1400;SDS011;46518;48.842;8.926;2022-07-01T05:03:57;2.70;;;2.50;;
1400;SDS011;46518;48.842;8.926;2022-07-01T05:06:25;2.95;;;2.60;;
1400;SDS011;46518;48.842;8.926;2022-07-01T05:08:54;3.53;;;3.20;;
1400;SDS011;46518;48.842;8.926;2022-07-01T05:11:22;3.40;;;3.10;;
1400;SDS011;46518;48.842;8.926;2022-07-01T05:13:51;7.45;;;3.60;;
1400;SDS011;46518;48.842;8.926;2022-07-01T05:16:20;4.25;;;3.72;;
1400;SDS011;46518;48.842;8.926;2022-07-01T05:18:48;5.93;;;4.07;;
1400;SDS011;46518;48.842;8.926;2022-07-01T05:21:33;5.30;;;4.03;;
1400;SDS011;46518;48.842;8.926;2022-07-01T05:24:19;2.65;;;2.45;;
1400;SDS011;46518;48.842;8.926;2022-07-01T05:26:47;2.92;;;2.72;;
1400;SDS011;46518;48.842;8.926;2022-07-01T05:29:16;4.03;;;3.63;;
1400;SDS011;46518;48.842;8.926;2022-07-01T05:31:45;7.57;;;4.32;;
1400;SDS011;46518;48.842;8.926;2022-07-01T05:34:13;4.38;;;4.00;;
1400;SDS011;46518;48.842;8.926;2022-07-01T05:36:41;4.03;;;3.60;;
1400;SDS011;46518;48.842;8.926;2022-07-01T05:39:09;3.90;;;3.53;;
1400;SDS011;46518;48.842;8.926;2022-07-01T05:41:38;4.72;;;4.22;;
1400;SDS011;46518;48.842;8.926;2022-07-01T05:44:06;4.38;;;3.88;;
1400;SDS011;46518;48.842;8.926;2022-07-01T05:46:36;4.25;;;3.92;;
1400;SDS011;46518;48.842;8.926;2022-07-01T05:49:05;4.10;;;3.55;;
1400;SDS011;46518;48.842;8.926;2022-07-01T05:51:33;4.07;;;3.67;;
1400;SDS011;46518;48.842;8.926;2022-07-01T05:54:01;6.82;;;4.07;;
1400;SDS011;46518;48.842;8.926;2022-07-01T05:56:30;4.07;;;3.78;;
1400;SDS011;46518;48.842;8.926;2022-07-01T05:58:59;3.17;;;2.88;;
1400;SDS011;46518;48.842;8.926;2022-07-01T06:01:27;3.30;;;3.00;;
1400;SDS011;46518;48.842;8.926;2022-07-01T06:03:56;5.65;;;5.15;;
1400;SDS011;46518;48.842;8.926;2022-07-01T06:06:24;5.95;;;3.70;;
1400;SDS011;46518;48.842;8.926;2022-07-01T06:08:53;3.63;;;3.15;;
1400;SDS011;46518;48.842;8.926;2022-07-01T06:11:21;5.13;;;4.63;;
1400;SDS011;46518;48.842;8.926;2022-07-01T06:13:49;4.53;;;4.13;;
1400;SDS011;46518;48.842;8.926;2022-07-01T06:16:17;3.95;;;3.58;;
1400;SDS011;46518;48.842;8.926;2022-07-01T06:18:45;7.07;;;4.20;;
1400;SDS011;46518;48.842;8.926;2022-07-01T06:21:14;6.18;;;5.22;;
1400;SDS011;46518;48.842;8.926;2022-07-01T06:23:43;5.90;;;3.92;;
1400;SDS011;46518;48.842;8.926;2022-07-01T06:26:12;7.13;;;4.22;;
1400;SDS011;46518;48.842;8.926;2022-07-01T06:28:41;5.93;;;4.15;;
1400;SDS011;46518;48.842;8.926;2022-07-01T06:31:09;4.25;;;3.85;;
1400;SDS011;46518;48.842;8.926;2022-07-01T06:33:37;6.25;;;4.40;;
1400;SDS011;46518;48.842;8.926;2022-07-01T06:36:05;7.00;;;4.22;;
1400;SDS011;46518;48.842;8.926;2022-07-01T06:38:35;4.15;;;3.20;;
1400;SDS011;46518;48.842;8.926;2022-07-01T06:41:03;4.90;;;4.15;;
1400;SDS011;46518;48.842;8.926;2022-07-01T06:43:48;4.53;;;3.92;;
1400;SDS011;46518;48.842;8.926;2022-07-01T06:46:17;6.07;;;4.65;;
1400;SDS011;46518;48.842;8.926;2022-07-01T06:48:45;4.53;;;3.95;;
1400;SDS011;46518;48.842;8.926;2022-07-01T06:51:13;4.68;;;4.20;;
1400;SDS011;46518;48.842;8.926;2022-07-01T06:53:43;6.82;;;5.32;;
1400;SDS011;46518;48.842;8.926;2022-07-01T06:56:13;5.25;;;4.75;;
1400;SDS011;46518;48.842;8.926;2022-07-01T06:58:41;6.63;;;5.35;;
1400;SDS011;46518;48.842;8.926;2022-07-01T07:01:10;6.88;;;5.55;;
1400;SDS011;46518;48.842;8.926;2022-07-01T07:03:38;5.60;;;4.30;;
1400;SDS011;46518;48.842;8.926;2022-07-01T07:06:06;9.93;;;6.00;;
1400;SDS011;46518;48.842;8.926;2022-07-01T07:08:34;6.72;;;5.93;;
1400;SDS011;46518;48.842;8.926;2022-07-01T07:11:04;6.35;;;5.70;;
1400;SDS011;46518;48.842;8.926;2022-07-01T07:13:35;7.47;;;5.65;;
1400;SDS011;46518;48.842;8.926;2022-07-01T07:16:04;4.72;;;4.32;;
1400;SDS011;46518;48.842;8.926;2022-07-01T07:18:32;7.72;;;6.22;;
1400;SDS011;46518;48.842;8.926;2022-07-01T07:21:01;3.90;;;3.47;;
1400;SDS011;46518;48.842;8.926;2022-07-01T07:23:30;3.53;;;3.03;;
1400;SDS011;46518;48.842;8.926;2022-07-01T07:25:58;3.75;;;3.08;;
1400;SDS011;46518;48.842;8.926;2022-07-01T07:28:27;6.10;;;4.85;;
1400;SDS011;46518;48.842;8.926;2022-07-01T07:30:55;5.60;;;4.60;;
1400;SDS011;46518;48.842;8.926;2022-07-01T07:33:24;6.43;;;5.43;;
1400;SDS011;46518;48.842;8.926;2022-07-01T07:35:54;9.05;;;5.50;;
1400;SDS011;46518;48.842;8.926;2022-07-01T07:38:22;5.53;;;4.30;;
1400;SDS011;46518;48.842;8.926;2022-07-01T07:40:51;6.00;;;5.40;;
1400;SDS011;46518;48.842;8.926;2022-07-01T07:43:19;3.88;;;3.53;;
1400;SDS011;46518;48.842;8.926;2022-07-01T07:45:48;3.50;;;3.20;;
1400;SDS011;46518;48.842;8.926;2022-07-01T07:48:16;4.65;;;3.20;;
1400;SDS011;46518;48.842;8.926;2022-07-01T07:50:45;2.92;;;2.60;;
1400;SDS011;46518;48.842;8.926;2022-07-01T07:53:14;3.83;;;3.53;;
1400;SDS011;46518;48.842;8.926;2022-07-01T07:55:42;4.10;;;3.70;;
1400;SDS011;46518;48.842;8.926;2022-07-01T07:58:10;6.38;;;4.45;;
1400;SDS011;46518;48.842;8.926;2022-07-01T08:00:38;3.28;;;3.03;;
1400;SDS011;46518;48.842;8.926;2022-07-01T08:03:07;5.70;;;4.55;;
1400;SDS011;46518;48.842;8.926;2022-07-01T08:05:36;5.30;;;4.30;;
1400;SDS011;46518;48.842;8.926;2022-07-01T08:08:04;4.00;;;3.65;;
1400;SDS011;46518;48.842;8.926;2022-07-01T08:10:32;4.60;;;4.20;;
1400;SDS011;46518;48.842;8.926;2022-07-01T08:13:00;6.55;;;4.32;;
1400;SDS011;46518;48.842;8.926;2022-07-01T08:15:31;4.13;;;3.80;;
1400;SDS011;46518;48.842;8.926;2022-07-01T08:17:59;3.35;;;3.05;;
1400;SDS011;46518;48.842;8.926;2022-07-01T08:20:30;4.15;;;3.72;;
1400;SDS011;46518;48.842;8.926;2022-07-01T08:22:58;3.75;;;3.45;;
1400;SDS011;46518;48.842;8.926;2022-07-01T08:25:26;3.28;;;3.00;;
1400;SDS011;46518;48.842;8.926;2022-07-01T08:28:01;4.35;;;3.95;;
1400;SDS011;46518;48.842;8.926;2022-07-01T08:30:29;3.28;;;2.97;;
1400;SDS011;46518;48.842;8.926;2022-07-01T08:32:58;3.10;;;2.90;;
1400;SDS011;46518;48.842;8.926;2022-07-01T08:35:29;3.17;;;2.97;;
1400;SDS011;46518;48.842;8.926;2022-07-01T08:37:58;4.90;;;4.45;;
1400;SDS011;46518;48.842;8.926;2022-07-01T08:40:26;4.43;;;4.00;;
1400;SDS011;46518;48.842;8.926;2022-07-01T08:42:56;3.13;;;2.92;;
1400;SDS011;46518;48.842;8.926;2022-07-01T08:45:25;4.13;;;3.83;;
1400;SDS011;46518;48.842;8.926;2022-07-01T08:47:54;5.30;;;3.80;;
1400;SDS011;46518;48.842;8.926;2022-07-01T08:50:27;4.00;;;3.70;;
1400;SDS011;46518;48.842;8.926;2022-07-01T08:52:57;6.38;;;4.28;;
1400;SDS011;46518;48.842;8.926;2022-07-01T08:55:25;4.00;;;3.70;;
1400;SDS011;46518;48.842;8.926;2022-07-01T08:57:54;4.88;;;2.92;;
1400;SDS011;46518;48.842;8.926;2022-07-01T09:00:28;3.70;;;2.88;;
1400;SDS011;46518;48.842;8.926;2022-07-01T09:02:57;4.22;;;3.83;;
1400;SDS011;46518;48.842;8.926;2022-07-01T09:05:28;5.85;;;3.25;;
1400;SDS011;46518;48.842;8.926;2022-07-01T09:08:00;3.70;;;3.40;;
1400;SDS011;46518;48.842;8.926;2022-07-01T09:10:29;5.25;;;2.83;;
1400;SDS011;46518;48.842;8.926;2022-07-01T09:13:03;2.10;;;2.00;;
1400;SDS011;46518;48.842;8.926;2022-07-01T09:15:33;2.03;;;1.92;;
1400;SDS011;46518;48.842;8.926;2022-07-01T09:18:03;2.55;;;2.03;;
1400;SDS011;46518;48.842;8.926;2022-07-01T09:20:35;1.98;;;1.88;;
1400;SDS011;46518;48.842;8.926;2022-07-01T09:23:07;2.00;;;1.90;;
1400;SDS011;46518;48.842;8.926;2022-07-01T09:25:38;3.80;;;3.53;;
1400;SDS011;46518;48.842;8.926;2022-07-01T09:28:20;3.28;;;2.70;;
1400;SDS011;46518;48.842;8.926;2022-07-01T09:30:51;3.28;;;2.75;;
1400;SDS011;46518;48.842;8.926;2022-07-01T09:33:21;3.10;;;2.80;;
1400;SDS011;46518;48.842;8.926;2022-07-01T09:35:51;2.08;;;1.92;;
1400;SDS011;46518;48.842;8.926;2022-07-01T09:38:22;2.67;;;1.92;;
1400;SDS011;46518;48.842;8.926;2022-07-01T09:40:58;2.55;;;2.35;;
1400;SDS011;46518;48.842;8.926;2022-07-01T09:43:28;3.15;;;2.40;;
1400;SDS011;46518;48.842;8.926;2022-07-01T09:45:58;2.75;;;2.55;;
1400;SDS011;46518;48.842;8.926;2022-07-01T09:48:27;2.63;;;2.42;;
1400;SDS011;46518;48.842;8.926;2022-07-01T09:51:10;3.65;;;2.78;;
1400;SDS011;46518;48.842;8.926;2022-07-01T09:53:42;2.90;;;2.63;;
1400;SDS011;46518;48.842;8.926;2022-07-01T09:56:11;2.63;;;2.35;;
1400;SDS011;46518;48.842;8.926;2022-07-01T09:58:39;3.70;;;2.45;;
1400;SDS011;46518;48.842;8.926;2022-07-01T10:01:09;3.17;;;2.83;;
1400;SDS011;46518;48.842;8.926;2022-07-01T10:03:39;4.43;;;3.25;;
1400;SDS011;46518;48.842;8.926;2022-07-01T10:06:12;4.20;;;2.50;;
1400;SDS011;46518;48.842;8.926;2022-07-01T10:09:16;2.65;;;2.45;;
1400;SDS011;46518;48.842;8.926;2022-07-01T10:12:01;3.25;;;2.67;;
1400;SDS011;46518;48.842;8.926;2022-07-01T10:14:56;2.17;;;2.00;;
1400;SDS011;46518;48.842;8.926;2022-07-01T10:17:26;2.85;;;2.65;;
1400;SDS011;46518;48.842;8.926;2022-07-01T10:19:55;1.90;;;1.80;;
1400;SDS011;46518;48.842;8.926;2022-07-01T10:22:25;2.05;;;1.95;;
1400;SDS011;46518;48.842;8.926;2022-07-01T10:24:56;4.93;;;1.70;;
1400;SDS011;46518;48.842;8.926;2022-07-01T10:30:54;2.30;;;2.20;;
1400;SDS011;46518;48.842;8.926;2022-07-01T10:33:27;2.20;;;2.10;;
1400;SDS011;46518;48.842;8.926;2022-07-01T10:36:06;2.75;;;2.55;;
1400;SDS011;46518;48.842;8.926;2022-07-01T10:38:36;2.35;;;2.15;;
1400;SDS011;46518;48.842;8.926;2022-07-01T10:41:39;2.60;;;2.40;;
1400;SDS011;46518;48.842;8.926;2022-07-01T10:44:10;4.18;;;2.30;;
1400;SDS011;46518;48.842;8.926;2022-07-01T10:47:01;3.08;;;2.78;;
1400;SDS011;46518;48.842;8.926;2022-07-01T10:49:50;3.95;;;3.25;;
1400;SDS011;46518;48.842;8.926;2022-07-01T10:52:21;3.03;;;2.65;;
1400;SDS011;46518;48.842;8.926;2022-07-01T10:54:50;1.55;;;1.45;;
1400;SDS011;46518;48.842;8.926;2022-07-01T10:57:30;2.72;;;2.53;;
1400;SDS011;46518;48.842;8.926;2022-07-01T11:03:04;2.60;;;2.40;;
1400;SDS011;46518;48.842;8.926;2022-07-01T11:05:37;2.00;;;1.90;;
1400;SDS011;46518;48.842;8.926;2022-07-01T11:08:07;2.75;;;2.30;;
1400;SDS011;46518;48.842;8.926;2022-07-01T11:10:38;2.35;;;2.05;;
1400;SDS011;46518;48.842;8.926;2022-07-01T11:13:09;2.25;;;2.05;;
1400;SDS011;46518;48.842;8.926;2022-07-01T11:15:42;2.22;;;2.03;;
1400;SDS011;46518;48.842;8.926;2022-07-01T11:18:14;3.15;;;2.25;;
1400;SDS011;46518;48.842;8.926;2022-07-01T11:20:43;2.45;;;2.10;;
1400;SDS011;46518;48.842;8.926;2022-07-01T11:23:11;2.13;;;2.03;;
1400;SDS011;46518;48.842;8.926;2022-07-01T11:25:40;3.67;;;2.75;;
1400;SDS011;46518;48.842;8.926;2022-07-01T11:28:09;2.38;;;2.17;;
1400;SDS011;46518;48.842;8.926;2022-07-01T11:30:38;2.80;;;2.55;;
1400;SDS011;46518;48.842;8.926;2022-07-01T11:33:07;2.45;;;2.25;;
1400;SDS011;46518;48.842;8.926;2022-07-01T11:35:37;2.35;;;2.15;;
1400;SDS011;46518;48.842;8.926;2022-07-01T11:38:23;3.33;;;2.13;;
1400;SDS011;46518;48.842;8.926;2022-07-01T11:41:17;2.28;;;2.17;;
1400;SDS011;46518;48.842;8.926;2022-07-01T11:43:48;2.40;;;2.20;;
1400;SDS011;46518;48.842;8.926;2022-07-01T11:46:18;2.65;;;2.45;;
1400;SDS011;46518;48.842;8.926;2022-07-01T11:48:47;2.38;;;1.95;;
1400;SDS011;46518;48.842;8.926;2022-07-01T11:51:18;2.47;;;2.38;;
1400;SDS011;46518;48.842;8.926;2022-07-01T11:53:48;2.20;;;2.05;;
1400;SDS011;46518;48.842;8.926;2022-07-01T11:56:27;3.03;;;2.33;;
1400;SDS011;46518;48.842;8.926;2022-07-01T11:58:58;4.57;;;3.15;;
1400;SDS011;46518;48.842;8.926;2022-07-01T12:01:29;2.72;;;2.42;;
1400;SDS011;46518;48.842;8.926;2022-07-01T12:03:59;2.88;;;2.42;;
1400;SDS011;46518;48.842;8.926;2022-07-01T12:06:29;3.15;;;2.03;;
1400;SDS011;46518;48.842;8.926;2022-07-01T12:08:58;2.03;;;1.85;;
1400;SDS011;46518;48.842;8.926;2022-07-01T12:11:27;2.63;;;2.42;;
1400;SDS011;46518;48.842;8.926;2022-07-01T12:14:05;2.65;;;2.45;;
1400;SDS011;46518;48.842;8.926;2022-07-01T12:16:37;2.55;;;2.35;;
1400;SDS011;46518;48.842;8.926;2022-07-01T12:19:07;3.95;;;2.50;;
1400;SDS011;46518;48.842;8.926;2022-07-01T12:21:47;3.90;;;3.03;;
1400;SDS011;46518;48.842;8.926;2022-07-01T12:24:16;5.32;;;3.80;;
1400;SDS011;46518;48.842;8.926;2022-07-01T12:26:49;3.20;;;3.00;;
1400;SDS011;46518;48.842;8.926;2022-07-01T12:29:21;2.70;;;2.50;;
1400;SDS011;46518;48.842;8.926;2022-07-01T12:31:54;2.92;;;2.72;;
1400;SDS011;46518;48.842;8.926;2022-07-01T12:34:23;3.17;;;2.88;;
1400;SDS011;46518;48.842;8.926;2022-07-01T12:37:07;3.22;;;2.55;;
1400;SDS011;46518;48.842;8.926;2022-07-01T12:39:46;2.30;;;2.20;;
1400;SDS011;46518;48.842;8.926;2022-07-01T12:42:20;2.65;;;2.45;;
1400;SDS011;46518;48.842;8.926;2022-07-01T12:44:55;2.33;;;2.22;;
1400;SDS011;46518;48.842;8.926;2022-07-01T12:47:25;2.70;;;2.40;;
1400;SDS011;46518;48.842;8.926;2022-07-01T12:50:17;3.20;;;2.60;;
1400;SDS011;46518;48.842;8.926;2022-07-01T12:52:57;2.92;;;2.17;;
1400;SDS011;46518;48.842;8.926;2022-07-01T12:55:27;2.42;;;2.22;;
1400;SDS011;46518;48.842;8.926;2022-07-01T12:57:58;3.45;;;2.58;;
1400;SDS011;46518;48.842;8.926;2022-07-01T13:00:29;2.38;;;2.22;;
1400;SDS011;46518;48.842;8.926;2022-07-01T13:02:58;3.58;;;2.80;;
1400;SDS011;46518;48.842;8.926;2022-07-01T13:05:28;2.88;;;2.67;;
1400;SDS011;46518;48.842;8.926;2022-07-01T13:07:57;2.85;;;2.60;;
1400;SDS011;46518;48.842;8.926;2022-07-01T13:10:26;3.45;;;2.83;;
1400;SDS011;46518;48.842;8.926;2022-07-01T13:12:54;4.00;;;2.53;;
1400;SDS011;46518;48.842;8.926;2022-07-01T13:15:22;2.30;;;2.00;;
1400;SDS011;46518;48.842;8.926;2022-07-01T13:17:52;2.67;;;2.42;;
1400;SDS011;46518;48.842;8.926;2022-07-01T13:20:20;2.50;;;2.40;;
1400;SDS011;46518;48.842;8.926;2022-07-01T13:22:48;2.35;;;2.15;;
1400;SDS011;46518;48.842;8.926;2022-07-01T13:25:16;2.80;;;2.60;;
1400;SDS011;46518;48.842;8.926;2022-07-01T13:27:45;3.22;;;2.03;;
1400;SDS011;46518;48.842;8.926;2022-07-01T13:30:14;2.35;;;2.13;;
1400;SDS011;46518;48.842;8.926;2022-07-01T13:32:43;2.90;;;2.78;;
1400;SDS011;46518;48.842;8.926;2022-07-01T13:35:13;4.15;;;2.85;;
1400;SDS011;46518;48.842;8.926;2022-07-01T13:37:42;3.10;;;2.75;;
1400;SDS011;46518;48.842;8.926;2022-07-01T13:40:10;2.25;;;2.10;;
1400;SDS011;46518;48.842;8.926;2022-07-01T13:42:39;2.10;;;2.00;;
1400;SDS011;46518;48.842;8.926;2022-07-01T13:45:07;2.97;;;2.75;;
1400;SDS011;46518;48.842;8.926;2022-07-01T13:47:36;3.47;;;2.63;;
1400;SDS011;46518;48.842;8.926;2022-07-01T13:50:05;2.60;;;2.40;;
1400;SDS011;46518;48.842;8.926;2022-07-01T13:52:35;2.58;;;2.28;;
1400;SDS011;46518;48.842;8.926;2022-07-01T13:55:09;3.17;;;2.40;;
1400;SDS011;46518;48.842;8.926;2022-07-01T13:57:37;2.08;;;1.98;;
1400;SDS011;46518;48.842;8.926;2022-07-01T14:00:05;2.95;;;2.30;;
1400;SDS011;46518;48.842;8.926;2022-07-01T14:02:34;2.30;;;2.10;;
1400;SDS011;46518;48.842;8.926;2022-07-01T14:05:03;2.60;;;2.40;;
1400;SDS011;46518;48.842;8.926;2022-07-01T14:07:31;4.18;;;2.53;;
1400;SDS011;46518;48.842;8.926;2022-07-01T14:10:00;3.10;;;2.80;;
1400;SDS011;46518;48.842;8.926;2022-07-01T14:12:29;2.00;;;1.90;;
1400;SDS011;46518;48.842;8.926;2022-07-01T14:14:57;2.47;;;2.28;;
1400;SDS011;46518;48.842;8.926;2022-07-01T14:17:25;1.90;;;1.80;;
1400;SDS011;46518;48.842;8.926;2022-07-01T14:19:53;1.90;;;1.80;;
1400;SDS011;46518;48.842;8.926;2022-07-01T14:22:23;2.10;;;1.95;;
1400;SDS011;46518;48.842;8.926;2022-07-01T14:24:52;2.00;;;1.90;;
1400;SDS011;46518;48.842;8.926;2022-07-01T14:27:22;2.08;;;1.90;;
1400;SDS011;46518;48.842;8.926;2022-07-01T14:29:50;4.25;;;2.40;;
1400;SDS011;46518;48.842;8.926;2022-07-01T14:32:22;4.95;;;2.22;;
1400;SDS011;46518;48.842;8.926;2022-07-01T14:34:54;1.48;;;1.25;;
1400;SDS011;46518;48.842;8.926;2022-07-01T14:37:23;1.60;;;1.50;;
1400;SDS011;46518;48.842;8.926;2022-07-01T14:39:51;2.72;;;1.88;;
1400;SDS011;46518;48.842;8.926;2022-07-01T14:42:24;2.90;;;2.65;;
1400;SDS011;46518;48.842;8.926;2022-07-01T14:44:53;1.80;;;1.70;;
1400;SDS011;46518;48.842;8.926;2022-07-01T14:47:21;2.60;;;2.40;;
1400;SDS011;46518;48.842;8.926;2022-07-01T14:49:50;2.13;;;1.88;;
1400;SDS011;46518;48.842;8.926;2022-07-01T14:52:20;1.90;;;1.80;;
1400;SDS011;46518;48.842;8.926;2022-07-01T14:54:49;1.80;;;1.70;;
1400;SDS011;46518;48.842;8.926;2022-07-01T14:57:18;4.43;;;2.33;;
1400;SDS011;46518;48.842;8.926;2022-07-01T14:59:47;2.17;;;1.98;;
1400;SDS011;46518;48.842;8.926;2022-07-01T15:02:16;2.55;;;2.35;;
1400;SDS011;46518;48.842;8.926;2022-07-01T15:04:45;7.03;;;2.20;;
1400;SDS011;46518;48.842;8.926;2022-07-01T15:07:13;2.03;;;1.77;;
1400;SDS011;46518;48.842;8.926;2022-07-01T15:09:41;3.30;;;1.75;;
1400;SDS011;46518;48.842;8.926;2022-07-01T15:12:10;1.83;;;1.73;;
1400;SDS011;46518;48.842;8.926;2022-07-01T15:14:38;1.88;;;1.77;;
1400;SDS011;46518;48.842;8.926;2022-07-01T15:17:08;2.28;;;1.90;;
1400;SDS011;46518;48.842;8.926;2022-07-01T15:19:37;2.35;;;2.15;;
1400;SDS011;46518;48.842;8.926;2022-07-01T15:22:06;3.72;;;1.80;;
1400;SDS011;46518;48.842;8.926;2022-07-01T15:24:35;1.80;;;1.70;;
1400;SDS011;46518;48.842;8.926;2022-07-01T15:27:04;2.55;;;2.40;;